Time;durP1;ratioP1;P1;durP2;ratioP2;P2;SDS_P1;SDS_P2;PMS_P1;PMS_P2;Temp;Humidity;BMP_temperature;BMP_pressure;BME280_temperature;BME280_humidity;BME280_pressure;Samples;Min_cycle;Max_cycle;Signal;HPM_P1;HPM_P2
2021/12/30 00:01:47;;;;;;;152.20;86.70;;;;;;;1.15;73.99;98615.30;103042;1316;107859;-78
2021/12/30 00:04:15;;;;;;;138.20;76.80;;;;;;;1.16;73.91;98620.15;103075;1317;99233;-78
2021/12/30 00:06:43;;;;;;;124.90;72.00;;;;;;;1.07;73.96;98629.41;103101;1317;99222;-77
2021/12/30 00:09:14;;;;;;;137.60;80.10;;;;;;;1.00;74.02;98628.65;103055;1317;112930;-77
2021/12/30 00:11:43;;;;;;;120.30;68.50;;;;;;;1.02;74.02;98629.29;102995;1313;99329;-77
2021/12/30 00:14:32;;;;;;;111.70;65.10;;;;;;;0.99;74.18;98620.50;102926;1322;106935;-77
2021/12/30 00:17:01;;;;;;;129.70;74.20;;;;;;;0.96;74.61;98622.02;102990;1316;99248;-79
2021/12/30 00:19:30;;;;;;;116.40;64.20;;;;;;;0.87;74.51;98620.98;103026;1317;99345;-77
2021/12/30 00:21:57;;;;;;;136.50;75.40;;;;;;;0.85;74.67;98620.86;103004;1322;112418;-77
2021/12/30 00:24:26;;;;;;;134.20;75.60;;;;;;;0.82;74.61;98625.55;102925;1318;97912;-77
2021/12/30 00:26:54;;;;;;;112.90;63.00;;;;;;;0.81;74.50;98625.23;102998;1318;107809;-77
2021/12/30 00:29:24;;;;;;;129.20;71.00;;;;;;;0.83;74.91;98617.12;103009;1319;99316;-77
2021/12/30 00:31:53;;;;;;;137.10;75.10;;;;;;;0.77;75.06;98613.86;102960;1320;99205;-79
2021/12/30 00:34:21;;;;;;;130.50;74.60;;;;;;;0.69;75.09;98619.77;102977;1316;112873;-78
2021/12/30 00:36:49;;;;;;;154.50;85.20;;;;;;;0.63;75.20;98627.17;102976;1316;97923;-77
2021/12/30 00:39:18;;;;;;;117.40;67.80;;;;;;;0.58;74.99;98631.88;103003;1316;107980;-78
2021/12/30 00:41:49;;;;;;;126.30;70.60;;;;;;;0.63;74.98;98632.93;102829;1318;99413;-77
2021/12/30 00:44:17;;;;;;;113.10;64.10;;;;;;;0.68;74.95;98631.65;103033;1317;99251;-78
2021/12/30 00:46:45;;;;;;;113.30;66.00;;;;;;;0.73;75.22;98629.21;102878;1318;112834;-78
2021/12/30 17:04:30;;;;;;;22.40;10.10;;;;;;;2.96;76.10;98916.58;103045;1305;114270;-73
2021/12/30 17:07:05;;;;;;;27.90;11.50;;;;;;;2.97;76.12;98924.41;102853;1316;99246;-72
2021/12/30 17:09:39;;;;;;;25.50;10.70;;;;;;;2.99;75.98;98922.23;102930;1316;107872;-73
2021/12/30 17:12:08;;;;;;;29.70;12.90;;;;;;;3.00;76.10;98932.67;102612;1317;97805;-73
2021/12/30 17:14:37;;;;;;;26.30;11.10;;;;;;;3.02;76.25;98931.59;102822;1315;99317;-72
2021/12/30 17:17:05;;;;;;;27.90;12.40;;;;;;;3.03;76.16;98930.83;102741;1316;112363;-73
2021/12/30 17:19:32;;;;;;;25.40;11.90;;;;;;;3.04;76.28;98923.07;102826;1316;99116;-72
2021/12/30 17:22:01;;;;;;;25.30;11.70;;;;;;;3.06;76.09;98923.99;102933;1315;107971;-71
2021/12/30 17:24:29;;;;;;;23.20;9.90;;;;;;;3.07;76.22;98926.40;102656;1315;97419;-70
2021/12/30 17:27:04;;;;;;;22.60;10.10;;;;;;;3.08;76.29;98927.06;102958;1316;99227;-70
2021/12/30 17:29:34;;;;;;;21.60;9.90;;;;;;;3.08;76.18;98934.60;103103;1320;111839;-72
2021/12/30 17:32:02;;;;;;;24.30;10.90;;;;;;;3.08;76.11;98938.98;103073;1312;97701;-71
2021/12/30 17:34:30;;;;;;;22.60;10.50;;;;;;;3.09;76.35;98940.88;102913;1313;107723;-72
2021/12/30 17:36:59;;;;;;;25.50;11.80;;;;;;;3.11;76.50;98947.45;103027;1316;99254;-71
2021/12/30 17:39:30;;;;;;;27.60;11.00;;;;;;;3.11;76.45;98963.73;103121;1317;99215;-69
2021/12/30 17:42:00;;;;;;;24.50;11.40;;;;;;;3.12;76.42;98959.69;103223;1316;112939;-72
2021/12/30 17:44:30;;;;;;;25.00;11.70;;;;;;;3.12;76.40;98962.98;103154;1319;99348;-73
2021/12/30 17:47:04;;;;;;;26.20;11.60;;;;;;;3.13;76.44;98954.17;103055;1316;107876;-71
2021/12/30 17:49:34;;;;;;;21.40;9.50;;;;;;;3.15;76.36;98946.04;103170;1317;99245;-73
2021/12/30 17:52:04;;;;;;;24.30;10.70;;;;;;;3.14;76.51;98944.70;103180;1315;97256;-72
2021/12/30 17:54:32;;;;;;;23.40;10.80;;;;;;;3.12;76.38;98944.76;102983;1316;112740;-70
2021/12/30 17:57:02;;;;;;;21.90;10.40;;;;;;;3.12;76.32;98948.61;102924;1322;99790;-72
2021/12/30 22:12:32;;;;;;;25.80;11.30;;;;;;;2.22;76.89;98973.05;103074;1308;99939;-72
2021/12/30 22:15:00;;;;;;;24.30;10.60;;;;;;;2.20;77.09;98970.99;104026;1322;107696;-74
2021/12/30 22:17:30;;;;;;;24.80;10.60;;;;;;;2.20;77.07;98969.44;102764;1318;99388;-74
2021/12/30 22:19:58;;;;;;;22.10;9.90;;;;;;;2.19;77.04;98971.58;104076;1316;97146;-73
2021/12/30 22:22:26;;;;;;;24.40;10.00;;;;;;;2.20;77.21;98970.67;102826;1319;112895;-74
2021/12/30 22:24:54;;;;;;;23.40;10.90;;;;;;;2.21;77.20;98969.04;104570;1317;97720;-74
2021/12/30 22:27:22;;;;;;;23.30;9.80;;;;;;;2.22;77.27;98966.55;103463;1320;106507;-74
2021/12/30 22:29:51;;;;;;;24.00;9.80;;;;;;;2.24;77.44;98963.52;102887;1319;99215;-73
2021/12/30 22:32:20;;;;;;;23.70;10.30;;;;;;;2.24;77.39;98957.56;103261;1319;99256;-74
2021/12/30 22:34:50;;;;;;;23.20;10.20;;;;;;;2.23;77.13;98950.23;102855;1316;112860;-73
2021/12/30 22:37:18;;;;;;;25.20;11.20;;;;;;;2.25;77.30;98940.55;102864;1318;97860;-73
2021/12/30 22:39:45;;;;;;;23.60;10.40;;;;;;;2.25;77.07;98939.64;102882;1319;107882;-73
2021/12/30 22:42:14;;;;;;;23.00;9.40;;;;;;;2.26;77.47;98935.24;102845;1320;96726;-72
2021/12/30 22:44:41;;;;;;;23.30;9.80;;;;;;;2.25;77.37;98939.32;102735;1320;99641;-72
2021/12/30 22:47:12;;;;;;;24.00;10.60;;;;;;;2.23;77.44;98937.83;102890;1318;112859;-73
2021/12/30 22:49:39;;;;;;;23.70;9.60;;;;;;;2.23;77.50;98935.53;102902;1318;99358;-75
2021/12/30 22:52:10;;;;;;;21.70;9.60;;;;;;;2.24;77.66;98930.10;102895;1322;107762;-75
2021/12/30 22:54:40;;;;;;;23.50;9.60;;;;;;;2.22;77.58;98918.61;102814;1317;96730;-74
2021/12/30 22:57:09;;;;;;;24.20;10.20;;;;;;;2.24;77.69;98911.89;102832;1317;96626;-74
2021/12/30 22:59:37;;;;;;;21.20;8.90;;;;;;;2.21;78.12;98914.27;102753;1320;112902;-73
2021/12/30 23:02:05;;;;;;;19.40;9.00;;;;;;;2.19;77.97;98910.52;102826;1318;99270;-73
2021/12/30 23:04:33;;;;;;;21.90;9.10;;;;;;;2.19;78.44;98908.97;102889;1319;105713;-73
2021/12/30 23:07:00;;;;;;;23.00;9.30;;;;;;;2.16;78.26;98913.79;102845;1317;99352;-73
2021/12/30 23:09:29;;;;;;;23.20;9.80;;;;;;;2.14;78.47;98912.29;102865;1319;99255;-73
2021/12/30 23:11:57;;;;;;;21.70;9.20;;;;;;;2.11;78.51;98908.39;102898;1316;112815;-74
2021/12/30 23:14:25;;;;;;;20.70;8.70;;;;;;;2.10;78.29;98907.39;102978;1317;98967;-72
2021/12/30 23:16:54;;;;;;;22.80;10.60;;;;;;;2.08;78.39;98906.41;102852;1319;107895;-73
2021/12/30 23:19:29;;;;;;;22.60;9.50;;;;;;;2.06;78.71;98900.71;102758;1320;96578;-73
2021/12/30 23:21:58;;;;;;;22.20;10.30;;;;;;;2.04;78.25;98898.50;102977;1317;99293;-73
2021/12/30 23:24:29;;;;;;;20.80;8.90;;;;;;;2.05;78.66;98894.26;102891;1319;112930;-73
2021/12/30 23:26:58;;;;;;;21.10;9.40;;;;;;;2.04;78.88;98901.67;102921;1317;99341;-73
2021/12/30 23:29:28;;;;;;;23.10;10.40;;;;;;;2.04;78.87;98900.96;102860;1321;107610;-73
2021/12/30 23:31:56;;;;;;;24.50;11.90;;;;;;;2.04;78.95;98905.70;102901;1319;99229;-72
2021/12/30 23:34:26;;;;;;;22.90;9.90;;;;;;;2.05;79.02;98904.25;102904;1318;98411;-74
2021/12/30 23:36:55;;;;;;;25.10;10.30;;;;;;;2.05;79.24;98901.45;102874;1318;112806;-72
2021/12/30 23:39:23;;;;;;;24.00;9.60;;;;;;;2.02;79.22;98896.66;103631;1323;99342;-72
2021/12/30 23:41:50;;;;;;;19.50;8.50;;;;;;;2.02;79.18;98891.95;102988;1322;109634;-72
2021/12/30 23:44:19;;;;;;;22.90;10.30;;;;;;;2.03;79.11;98891.20;102968;1319;98438;-74
2021/12/30 23:46:48;;;;;;;20.20;9.10;;;;;;;2.02;78.87;98886.36;102917;1320;99366;-72
2021/12/30 23:49:16;;;;;;;20.40;9.00;;;;;;;2.03;79.39;98890.66;102915;1317;112849;-72
2021/12/30 23:51:44;;;;;;;21.90;8.70;;;;;;;2.02;79.18;98892.83;102910;1321;99315;-71
2021/12/30 23:54:12;;;;;;;19.90;8.40;;;;;;;2.02;79.18;98890.02;104543;1317;107405;-71
2021/12/30 23:56:39;;;;;;;18.80;8.20;;;;;;;2.03;79.42;98889.45;104410;1316;97078;-70
2021/12/30 23:59:08;;;;;;;19.90;8.40;;;;;;;2.05;79.64;98887.97;102907;1321;99246;-71
